Time;durP1;ratioP1;P1;durP2;ratioP2;P2;SDS_P1;SDS_P2;PMS_P1;PMS_P2;Temp;Humidity;BMP_temperature;BMP_pressure;BME280_temperature;BME280_humidity;BME280_pressure;Samples;Min_cycle;Max_cycle;Signal;HPM_P1;HPM_P2
2023/09/02 00:07:16;;;;;;;;;;;15.30;99.90;;;;;;6715043;88;20137;-76
2023/09/02 00:17:16;;;;;;;;;;;15.10;99.90;;;;;;6715847;88;20082;-76
2023/09/02 00:27:17;;;;;;;;;;;15.00;99.90;;;;;;6718267;88;20164;-76
2023/09/02 00:37:17;;;;;;;;;;;15.00;99.90;;;;;;6715871;88;20459;-76
2023/09/02 00:47:18;;;;;;;;;;;14.90;99.90;;;;;;6715112;88;20071;-76
2023/09/02 00:57:19;;;;;;;;;;;15.00;99.90;;;;;;6715244;88;20097;-75
2023/09/02 01:07:20;;;;;;;;;;;15.00;99.90;;;;;;6716758;88;20464;-76
2023/09/02 01:17:20;;;;;;;;;;;15.00;99.90;;;;;;6721698;77;20088;-75
2023/09/02 01:27:21;;;;;;;;;;;14.90;99.90;;;;;;6734243;88;20070;-75
2023/09/02 01:37:22;;;;;;;;;;;14.80;99.90;;;;;;6733824;88;20061;-74
2023/09/02 01:47:23;;;;;;;;;;;14.80;99.90;;;;;;6725922;88;20077;-75
2023/09/02 01:57:24;;;;;;;;;;;14.70;99.90;;;;;;6732320;88;20192;-75
2023/09/02 02:07:28;;;;;;;;;;;14.90;99.90;;;;;;6728641;88;20338;-74
2023/09/02 02:17:28;;;;;;;;;;;14.80;99.90;;;;;;6734688;88;20078;-75
2023/09/02 02:27:29;;;;;;;;;;;14.80;99.90;;;;;;6738124;88;20104;-75
2023/09/02 02:37:29;;;;;;;;;;;14.70;99.90;;;;;;6731747;88;20133;-74
2023/09/02 02:47:30;;;;;;;;;;;14.70;99.90;;;;;;6741288;88;20158;-75
2023/09/02 02:57:30;;;;;;;;;;;14.60;99.90;;;;;;6736871;88;20078;-75
2023/09/02 03:07:31;;;;;;;;;;;14.60;99.90;;;;;;6735388;88;20096;-74
2023/09/02 03:17:32;;;;;;;;;;;14.60;99.90;;;;;;6735094;88;20884;-74
2023/09/02 03:27:32;;;;;;;;;;;14.50;99.90;;;;;;6741452;88;20068;-74
2023/09/02 03:37:33;;;;;;;;;;;14.50;99.90;;;;;;6736460;88;20203;-74
2023/09/02 03:47:33;;;;;;;;;;;14.50;99.90;;;;;;6732493;88;20207;-73
2023/09/02 03:57:34;;;;;;;;;;;14.40;99.90;;;;;;6736511;88;20078;-74
2023/09/02 04:07:34;;;;;;;;;;;14.50;99.90;;;;;;6730338;88;20075;-74
2023/09/02 04:17:34;;;;;;;;;;;14.40;99.90;;;;;;6746160;88;20258;-74
2023/09/02 04:27:35;;;;;;;;;;;14.40;99.90;;;;;;6732975;88;20081;-74
2023/09/02 04:37:35;;;;;;;;;;;14.50;99.90;;;;;;6733924;88;20604;-74
2023/09/02 04:47:36;;;;;;;;;;;14.40;99.90;;;;;;6734718;88;20063;-74
2023/09/02 04:57:36;;;;;;;;;;;14.50;99.90;;;;;;6735494;88;20123;-74
2023/09/02 05:07:37;;;;;;;;;;;14.50;99.90;;;;;;6733731;88;20209;-75
2023/09/02 05:17:37;;;;;;;;;;;14.60;99.90;;;;;;6735290;88;20113;-75
2023/09/02 05:27:38;;;;;;;;;;;14.60;99.90;;;;;;6732101;88;20480;-75
2023/09/02 05:37:39;;;;;;;;;;;14.70;99.90;;;;;;6731797;88;20084;-75
2023/09/02 05:47:39;;;;;;;;;;;14.80;99.90;;;;;;6735373;88;20053;-75
2023/09/02 05:57:40;;;;;;;;;;;14.80;99.90;;;;;;6724919;88;20121;-75
2023/09/02 06:07:40;;;;;;;;;;;15.00;99.90;;;;;;6727376;88;20145;-77
2023/09/02 06:17:41;;;;;;;;;;;15.20;99.90;;;;;;6728763;88;20948;-76
2023/09/02 06:27:41;;;;;;;;;;;15.30;99.90;;;;;;6730182;88;20067;-75
2023/09/02 06:37:42;;;;;;;;;;;15.40;99.90;;;;;;6727242;88;20603;-76
2023/09/02 06:47:42;;;;;;;;;;;15.50;99.90;;;;;;6731911;88;20069;-75
2023/09/02 06:57:43;;;;;;;;;;;15.70;99.90;;;;;;6732305;88;20501;-74
2023/09/02 07:07:44;;;;;;;;;;;15.80;99.90;;;;;;6735172;88;20057;-73
2023/09/02 07:17:46;;;;;;;;;;;15.80;99.90;;;;;;6721187;77;20119;-75
2023/09/02 07:27:46;;;;;;;;;;;16.00;99.90;;;;;;6695549;88;20071;-76
2023/09/02 07:37:47;;;;;;;;;;;16.30;99.90;;;;;;6695641;88;20186;-76
2023/09/02 07:47:47;;;;;;;;;;;16.60;99.90;;;;;;6703925;88;20883;-74
2023/09/02 07:57:48;;;;;;;;;;;17.00;99.90;;;;;;6697888;88;20063;-76
2023/09/02 08:07:48;;;;;;;;;;;17.90;99.90;;;;;;6689139;88;20091;-75
2023/09/02 08:17:49;;;;;;;;;;;18.40;99.90;;;;;;6696319;88;20096;-76
2023/09/02 08:27:49;;;;;;;;;;;18.90;99.90;;;;;;6700494;88;20092;-75
2023/09/02 08:37:51;;;;;;;;;;;19.20;99.90;;;;;;6698890;88;20542;-76
2023/09/02 08:47:56;;;;;;;;;;;19.50;99.90;;;;;;6701643;88;20051;-77
2023/09/02 08:57:56;;;;;;;;;;;20.20;99.90;;;;;;6701637;88;20138;-76
2023/09/02 09:07:58;;;;;;;;;;;21.00;99.90;;;;;;6698325;88;20655;-77
2023/09/02 09:17:59;;;;;;;;;;;21.70;99.90;;;;;;6697695;88;20164;-76
2023/09/02 09:28:06;;;;;;;;;;;22.90;99.90;;;;;;6699975;88;20085;-78
2023/09/02 09:38:06;;;;;;;;;;;23.80;99.90;;;;;;6693882;88;20575;-76
2023/09/02 09:48:10;;;;;;;;;;;25.30;99.90;;;;;;6692546;88;20064;-75
2023/09/02 09:58:10;;;;;;;;;;;25.70;99.90;;;;;;6694557;88;20082;-77
2023/09/02 10:08:11;;;;;;;;;;;26.60;99.90;;;;;;6692949;88;20097;-76
2023/09/02 10:18:12;;;;;;;;;;;27.40;99.90;;;;;;6691701;88;20089;-76
2023/09/02 10:28:16;;;;;;;;;;;28.30;99.90;;;;;;6695618;88;20179;-76
2023/09/02 10:38:17;;;;;;;;;;;28.10;99.90;;;;;;6695532;88;20206;-78
2023/09/02 10:48:18;;;;;;;;;;;28.50;99.90;;;;;;6695886;88;20202;-75
2023/09/02 10:58:19;;;;;;;;;;;28.20;99.90;;;;;;6692563;88;20545;-76
2023/09/02 11:08:39;;;;;;;;;;;29.40;99.90;;;;;;6692033;88;20513;-75
2023/09/02 11:18:40;;;;;;;;;;;29.20;99.90;;;;;;6694754;88;20082;-78
2023/09/02 11:28:40;;;;;;;;;;;30.00;99.90;;;;;;6704455;88;20089;-79
2023/09/02 11:38:41;;;;;;;;;;;30.00;99.90;;;;;;6700989;88;20798;-79
2023/09/02 11:48:41;;;;;;;;;;;29.60;99.90;;;;;;6693182;88;20079;-78
2023/09/02 11:58:42;;;;;;;;;;;29.50;99.90;;;;;;6710069;88;20101;-77
2023/09/02 12:08:42;;;;;;;;;;;30.50;99.90;;;;;;6698609;88;20102;-77
2023/09/02 12:18:43;;;;;;;;;;;30.10;99.90;;;;;;6696226;88;20105;-78
2023/09/02 12:28:48;;;;;;;;;;;31.10;99.90;;;;;;6697723;88;20465;-77
2023/09/02 12:38:52;;;;;;;;;;;30.90;99.90;;;;;;6698645;88;20594;-78
2023/09/02 12:48:53;;;;;;;;;;;31.50;99.90;;;;;;6699325;88;20069;-75
2023/09/02 12:58:53;;;;;;;;;;;30.30;99.90;;;;;;6704817;88;20163;-79
2023/09/02 13:08:54;;;;;;;;;;;30.40;99.90;;;;;;6703826;88;20069;-76
2023/09/02 13:18:55;;;;;;;;;;;31.00;99.60;;;;;;6708199;88;20147;-78
2023/09/02 13:29:00;;;;;;;;;;;31.50;99.80;;;;;;6708315;88;20093;-77
2023/09/02 13:39:01;;;;;;;;;;;30.30;99.90;;;;;;6701513;88;20064;-77
2023/09/02 13:49:01;;;;;;;;;;;30.80;99.90;;;;;;6700937;88;20096;-77
2023/09/02 13:59:02;;;;;;;;;;;29.10;99.90;;;;;;6701036;88;20051;-77
2023/09/02 14:09:02;;;;;;;;;;;28.50;99.90;;;;;;6699753;88;20071;-77
2023/09/02 14:19:03;;;;;;;;;;;30.10;99.90;;;;;;6699441;88;20076;-76
2023/09/02 14:29:03;;;;;;;;;;;29.50;99.90;;;;;;6700764;88;20087;-76
2023/09/02 14:39:04;;;;;;;;;;;30.30;99.90;;;;;;6701099;88;20595;-76
2023/09/02 14:49:04;;;;;;;;;;;30.20;99.90;;;;;;6696645;88;20544;-77
2023/09/02 14:59:06;;;;;;;;;;;29.30;99.90;;;;;;6696160;88;20071;-78
2023/09/02 15:09:07;;;;;;;;;;;29.50;99.90;;;;;;6701358;88;20130;-77
2023/09/02 15:19:10;;;;;;;;;;;29.80;99.90;;;;;;6694406;88;20101;-72
2023/09/02 15:29:17;;;;;;;;;;;29.00;99.90;;;;;;6689022;88;20081;-74
2023/09/02 15:39:22;;;;;;;;;;;29.00;99.90;;;;;;6689014;88;20162;-75
2023/09/02 15:49:22;;;;;;;;;;;28.70;99.90;;;;;;6686230;88;21997;-75
2023/09/02 15:59:23;;;;;;;;;;;28.50;99.90;;;;;;6695145;88;20067;-75
2023/09/02 16:09:23;;;;;;;;;;;28.40;99.90;;;;;;6690328;88;20102;-74
2023/09/02 16:19:24;;;;;;;;;;;27.90;99.90;;;;;;6692117;88;20149;-73
2023/09/02 16:29:26;;;;;;;;;;;26.90;99.90;;;;;;6690005;88;20689;-74
2023/09/02 16:39:27;;;;;;;;;;;26.60;99.90;;;;;;6690077;88;20108;-73
2023/09/02 16:49:28;;;;;;;;;;;26.30;99.90;;;;;;6688072;88;20584;-75
2023/09/02 16:59:29;;;;;;;;;;;25.90;99.90;;;;;;6693379;88;20211;-73
2023/09/02 17:09:29;;;;;;;;;;;25.80;99.90;;;;;;6693170;88;20071;-73
2023/09/02 17:19:30;;;;;;;;;;;25.60;99.90;;;;;;6698849;88;20067;-73
2023/09/02 17:29:30;;;;;;;;;;;25.30;99.90;;;;;;6700014;88;20806;-73
2023/09/02 17:39:30;;;;;;;;;;;25.00;99.90;;;;;;6696454;88;20189;-74
2023/09/02 17:49:31;;;;;;;;;;;24.60;99.90;;;;;;6692097;88;20095;-74
2023/09/02 17:59:31;;;;;;;;;;;24.20;99.90;;;;;;6695209;88;20670;-76
2023/09/02 18:09:32;;;;;;;;;;;23.90;99.90;;;;;;6687217;88;20067;-75
2023/09/02 18:19:32;;;;;;;;;;;23.70;99.90;;;;;;6689398;88;20082;-74
2023/09/02 18:29:33;;;;;;;;;;;23.30;99.90;;;;;;6682434;88;20151;-76
2023/09/02 18:39:33;;;;;;;;;;;23.00;99.90;;;;;;6688058;88;20103;-77
2023/09/02 18:49:34;;;;;;;;;;;22.80;99.90;;;;;;6692889;88;20133;-75
2023/09/02 18:59:35;;;;;;;;;;;22.60;99.90;;;;;;6691802;88;20275;-75
2023/09/02 19:09:35;;;;;;;;;;;22.30;99.90;;;;;;6692672;88;20052;-76
2023/09/02 19:19:36;;;;;;;;;;;22.00;99.90;;;;;;6690758;88;21065;-76
2023/09/02 19:29:36;;;;;;;;;;;21.80;99.90;;;;;;6691490;88;20106;-74
2023/09/02 19:39:37;;;;;;;;;;;21.60;99.90;;;;;;6694225;88;20063;-77
2023/09/02 19:49:38;;;;;;;;;;;21.40;99.90;;;;;;6690979;88;20063;-77
2023/09/02 19:59:38;;;;;;;;;;;21.10;99.90;;;;;;6694509;88;20066;-78
2023/09/02 20:09:41;;;;;;;;;;;20.90;99.90;;;;;;6692969;88;20083;-77
2023/09/02 20:19:42;;;;;;;;;;;20.80;99.90;;;;;;6705856;88;20124;-77
2023/09/02 20:29:42;;;;;;;;;;;20.60;99.90;;;;;;6696138;88;20064;-76
2023/09/02 20:39:43;;;;;;;;;;;20.60;99.90;;;;;;6705309;88;20226;-78
2023/09/02 20:49:44;;;;;;;;;;;20.60;99.90;;;;;;6702784;88;20131;-78
2023/09/02 20:59:44;;;;;;;;;;;20.50;99.90;;;;;;6699830;88;20503;-76
2023/09/02 21:09:45;;;;;;;;;;;20.40;99.90;;;;;;6699635;88;20219;-76
2023/09/02 21:19:45;;;;;;;;;;;20.30;99.90;;;;;;6703138;88;20483;-77
2023/09/02 21:29:46;;;;;;;;;;;20.20;99.90;;;;;;6692176;88;20052;-78
2023/09/02 21:39:46;;;;;;;;;;;20.10;99.90;;;;;;6695414;88;20074;-76
2023/09/02 21:49:47;;;;;;;;;;;20.00;99.90;;;;;;6689955;88;20060;-76
2023/09/02 21:59:48;;;;;;;;;;;19.90;99.90;;;;;;6693599;88;20543;-77
2023/09/02 22:09:48;;;;;;;;;;;19.80;99.90;;;;;;6691611;88;20477;-76
2023/09/02 22:19:48;;;;;;;;;;;19.70;99.90;;;;;;6699221;88;20067;-76
2023/09/02 22:29:49;;;;;;;;;;;19.50;99.90;;;;;;6697675;88;20096;-76
2023/09/02 22:39:50;;;;;;;;;;;19.40;99.90;;;;;;6700027;88;20063;-75
2023/09/02 22:49:52;;;;;;;;;;;19.30;99.90;;;;;;6698730;88;20656;-77
2023/09/02 22:59:53;;;;;;;;;;;19.20;99.90;;;;;;6696910;88;20107;-76
2023/09/02 23:09:53;;;;;;;;;;;19.10;99.90;;;;;;6696016;88;20077;-78
2023/09/02 23:19:55;;;;;;;;;;;19.00;99.90;;;;;;6696486;88;20180;-75
2023/09/02 23:29:56;;;;;;;;;;;18.90;99.90;;;;;;6695627;88;20192;-76
2023/09/02 23:39:56;;;;;;;;;;;18.80;99.90;;;;;;6704422;88;20063;-76
2023/09/02 23:49:57;;;;;;;;;;;18.70;99.90;;;;;;6694531;88;20080;-76
2023/09/02 23:59:57;;;;;;;;;;;18.60;99.90;;;;;;6692409;88;20136;-76
